Time;durP1;ratioP1;P1;durP2;ratioP2;P2;SDS_P1;SDS_P2;PMS_P1;PMS_P2;Temp;Humidity;BMP_temperature;BMP_pressure;BME280_temperature;BME280_humidity;BME280_pressure;Samples;Min_cycle;Max_cycle;Signal;HPM_P1;HPM_P2
2023/12/12 00:00:40;;;;;;;38.60;15.32;;;;;;;1.60;100.00;100433.56;4970867;28;20485;-75
2023/12/12 00:03:05;;;;;;;40.22;16.17;;;;;;;1.02;100.00;100353.91;4971368;28;20019;-75
2023/12/12 00:05:32;;;;;;;39.28;15.90;;;;;;;1.37;100.00;100414.09;4971996;28;20077;-75
2023/12/12 00:07:58;;;;;;;42.55;16.70;;;;;;;1.48;100.00;100422.50;4968887;28;20042;-74
2023/12/12 00:10:24;;;;;;;54.08;19.70;;;;;;;1.59;100.00;100436.88;4971394;28;20516;-75
2023/12/12 00:12:49;;;;;;;53.75;18.67;;;;;;;1.70;100.00;100446.16;4971429;28;20077;-75
2023/12/12 00:15:14;;;;;;;59.45;18.33;;;;;;;1.77;100.00;100458.56;4971676;28;20038;-75
2023/12/12 00:17:40;;;;;;;61.30;19.77;;;;;;;1.42;100.00;100390.75;4971068;28;20505;-74
2023/12/12 00:20:09;;;;;;;65.43;20.17;;;;;;;1.81;100.00;100459.69;4970898;28;20097;-75
2023/12/12 00:22:36;;;;;;;63.35;19.33;;;;;;;1.77;100.00;100452.59;4970315;28;20524;-74
2023/12/12 00:25:01;;;;;;;41.38;16.38;;;;;;;1.43;100.00;100447.59;4971013;28;20058;-74
2023/12/12 00:27:27;;;;;;;42.38;17.52;;;;;;;1.52;100.00;100465.19;4971401;28;20069;-74
2023/12/12 00:29:52;;;;;;;53.45;17.05;;;;;;;1.41;100.00;100456.81;4971440;28;20205;-74
2023/12/12 00:32:18;;;;;;;93.85;19.38;;;;;;;1.40;100.00;100466.06;4971748;28;20523;-75
2023/12/12 00:34:43;;;;;;;53.88;16.23;;;;;;;1.24;100.00;100443.69;4971957;28;20030;-75
2023/12/12 00:37:09;;;;;;;54.92;17.77;;;;;;;1.38;100.00;100459.09;4971519;28;20041;-75
2023/12/12 00:39:39;;;;;;;58.72;20.92;;;;;;;1.51;100.00;100455.78;4971276;28;20140;-74
2023/12/12 00:42:04;;;;;;;;;;;;;;;1.66;100.00;100458.56;4974807;28;20031;-74
2023/12/12 00:44:31;;;;;;;60.13;19.23;;;;;;;1.51;100.00;100469.41;4974870;28;19925;-74
2023/12/12 00:46:56;;;;;;;64.45;18.88;;;;;;;1.39;100.00;100486.31;4975170;28;20034;-75
2023/12/12 00:49:22;;;;;;;60.08;19.13;;;;;;;1.21;100.00;100478.19;4975181;28;20034;-75
2023/12/12 00:51:47;;;;;;;61.55;17.25;;;;;;;1.06;100.00;100485.56;4975361;28;20038;-74
2023/12/12 00:54:13;;;;;;;56.95;18.58;;;;;;;0.84;100.00;100478.88;4940916;28;20043;-73
2023/12/12 00:56:38;;;;;;;50.38;17.92;;;;;;;0.77;100.00;100481.69;4974457;28;20030;-74
2023/12/12 00:59:04;;;;;;;57.60;17.83;;;;;;;0.88;100.00;100480.00;4974830;28;20031;-73
2023/12/12 01:01:29;;;;;;;56.65;17.80;;;;;;;0.74;100.00;100492.53;4974735;28;20027;-73
2023/12/12 01:03:55;;;;;;;52.20;18.10;;;;;;;0.76;100.00;100475.75;4974770;28;20461;-73
2023/12/12 01:06:23;;;;;;;40.20;17.05;;;;;;;0.79;100.00;100487.81;4974585;28;20026;-75
2023/12/12 01:08:49;;;;;;;51.35;17.50;;;;;;;0.35;100.00;100393.81;4974319;28;20117;-74
2023/12/12 01:11:14;;;;;;;56.58;18.80;;;;;;;0.89;100.00;100482.63;4974890;28;20062;-74
2023/12/12 01:13:40;;;;;;;46.13;18.90;;;;;;;0.88;100.00;100478.31;4974739;28;20022;-74
2023/12/12 01:16:06;;;;;;;45.08;15.48;;;;;;;0.71;100.00;100436.41;4974972;28;20031;-75
2023/12/12 01:18:32;;;;;;;45.42;17.00;;;;;;;0.57;100.00;100421.75;4974579;28;20524;-73
2023/12/12 01:20:57;;;;;;;38.45;15.70;;;;;;;0.84;100.00;100461.06;4924224;28;20425;-75
2023/12/12 01:23:23;;;;;;;44.67;17.85;;;;;;;0.55;100.00;100386.09;4971706;28;20027;-75
2023/12/12 01:25:48;;;;;;;37.75;17.02;;;;;;;1.04;100.00;100454.94;4956891;28;20034;-74
2023/12/12 01:28:14;;;;;;;40.60;16.38;;;;;;;0.74;100.00;100382.38;4974326;28;20097;-73
2023/12/12 01:30:39;;;;;;;33.30;15.50;;;;;;;1.16;100.00;100447.34;4974179;28;20563;-74
2023/12/12 01:33:05;;;;;;;39.47;19.13;;;;;;;1.20;100.00;100444.25;4974078;28;20018;-74
2023/12/12 01:35:31;;;;;;;41.40;18.73;;;;;;;0.93;100.00;100364.28;4974093;28;20057;-75
2023/12/12 01:37:56;;;;;;;29.27;14.60;;;;;;;1.44;100.00;100419.72;4974069;28;20035;-76
2023/12/12 01:40:22;;;;;;;31.58;14.88;;;;;;;1.58;100.00;100410.56;4973825;28;20094;-76
2023/12/12 01:42:47;;;;;;;32.78;14.85;;;;;;;1.64;100.00;100417.72;4974217;28;20035;-74
2023/12/12 01:45:14;;;;;;;30.48;14.13;;;;;;;1.53;100.00;100405.91;4971092;28;20030;-74
2023/12/12 01:47:40;;;;;;;29.83;14.15;;;;;;;1.55;100.00;100412.00;4973915;28;20026;-74
2023/12/12 01:50:07;;;;;;;27.95;13.32;;;;;;;1.58;100.00;100435.09;4973817;28;20082;-74
2023/12/12 01:52:34;;;;;;;31.70;16.13;;;;;;;1.63;100.00;100432.91;4973371;28;20023;-73
2023/12/12 01:54:59;;;;;;;31.88;14.18;;;;;;;1.64;100.00;100438.09;4973877;28;20022;-73
2023/12/12 01:57:25;;;;;;;32.78;13.65;;;;;;;1.64;100.00;100430.47;4973844;28;20046;-75
2023/12/12 01:59:52;;;;;;;33.97;14.80;;;;;;;1.72;100.00;100448.81;4971846;28;20092;-73
2023/12/12 02:02:19;;;;;;;29.45;13.77;;;;;;;1.59;100.00;100429.25;4973680;28;20473;-73
2023/12/12 02:04:47;;;;;;;38.83;15.57;;;;;;;1.62;100.00;100426.94;4959859;28;20095;-70
2023/12/12 02:07:13;;;;;;;31.05;14.40;;;;;;;1.63;100.00;100428.69;4973993;28;20552;-71
2023/12/12 02:09:39;;;;;;;30.00;14.63;;;;;;;1.70;100.00;100443.63;4973213;28;20034;-70
2023/12/12 02:12:04;;;;;;;32.92;15.32;;;;;;;1.66;100.00;100421.28;4973687;28;20474;-70
2023/12/12 02:14:31;;;;;;;37.92;14.75;;;;;;;1.30;100.00;100369.53;4956186;28;20082;-71
2023/12/12 02:16:57;;;;;;;30.45;14.13;;;;;;;1.49;100.00;100404.81;4973910;28;20561;-71
2023/12/12 02:19:22;;;;;;;32.47;14.30;;;;;;;1.37;100.00;100416.63;4973511;28;20054;-71
2023/12/12 02:21:48;;;;;;;41.40;14.40;;;;;;;1.31;100.00;100413.63;4973097;28;20038;-71
2023/12/12 02:24:13;;;;;;;37.08;15.38;;;;;;;1.23;100.00;100396.16;4972813;28;20023;-71
2023/12/12 02:26:39;;;;;;;34.53;14.75;;;;;;;1.31;100.00;100424.72;4973457;28;20031;-71
2023/12/12 02:29:04;;;;;;;43.88;15.35;;;;;;;1.25;100.00;100421.72;4960954;28;20473;-71
2023/12/12 02:31:30;;;;;;;36.63;15.30;;;;;;;1.29;100.00;100411.00;4972781;28;20038;-71
2023/12/12 02:33:55;;;;;;;38.85;14.93;;;;;;;1.17;100.00;100408.41;4973230;28;20058;-71
2023/12/12 02:36:21;;;;;;;44.17;15.65;;;;;;;1.23;100.00;100423.25;4973476;28;20538;-71
2023/12/12 02:38:46;;;;;;;48.08;14.85;;;;;;;1.09;100.00;100390.06;4972884;28;20089;-71
2023/12/12 02:41:12;;;;;;;39.55;15.18;;;;;;;1.33;100.00;100427.34;4973027;28;20057;-70
2023/12/12 02:43:37;;;;;;;34.67;14.13;;;;;;;1.35;100.00;100424.16;4971881;28;20117;-71
2023/12/12 02:46:03;;;;;;;37.42;15.40;;;;;;;1.28;100.00;100404.13;4972971;28;20043;-71
2023/12/12 02:48:28;;;;;;;41.63;15.70;;;;;;;0.89;100.00;100334.34;4973105;28;20429;-71
2023/12/12 02:50:54;;;;;;;34.30;15.32;;;;;;;1.33;100.00;100412.97;4970113;28;20031;-71
2023/12/12 02:53:19;;;;;;;35.45;15.18;;;;;;;1.37;100.00;100389.56;4972446;28;20031;-71
2023/12/12 02:55:45;;;;;;;38.92;15.35;;;;;;;1.40;100.00;100384.66;4972553;28;20094;-71
2023/12/12 02:58:11;;;;;;;33.83;14.45;;;;;;;1.40;100.00;100396.53;4972451;28;20062;-71
2023/12/12 03:00:36;;;;;;;35.22;14.63;;;;;;;0.78;100.00;100323.38;4972722;28;20026;-71
2023/12/12 03:03:01;;;;;;;34.30;14.48;;;;;;;1.22;100.00;100396.94;4972102;28;20037;-71
2023/12/12 03:05:27;;;;;;;36.08;15.13;;;;;;;1.32;100.00;100395.06;4972069;28;20031;-71
2023/12/12 03:07:52;;;;;;;39.15;16.10;;;;;;;1.43;100.00;100412.00;4972678;28;20030;-70
2023/12/12 03:10:18;;;;;;;43.60;15.63;;;;;;;1.43;100.00;100405.25;4973193;28;20487;-71
2023/12/12 03:12:43;;;;;;;36.28;14.98;;;;;;;1.06;100.00;100354.25;4973139;28;20030;-70
2023/12/12 03:15:09;;;;;;;39.25;14.23;;;;;;;1.44;100.00;100423.94;4938578;28;20481;-71
2023/12/12 03:17:35;;;;;;;33.72;15.32;;;;;;;1.13;100.00;100371.75;4972807;28;20417;-71
2023/12/12 03:20:00;;;;;;;37.05;14.40;;;;;;;1.47;100.00;100420.72;4972836;28;20427;-71
2023/12/12 03:22:26;;;;;;;30.98;13.95;;;;;;;1.53;100.00;100421.16;4972526;28;20039;-71
2023/12/12 03:24:52;;;;;;;34.25;14.98;;;;;;;1.62;100.00;100414.22;4972579;28;20027;-71
2023/12/12 03:27:18;;;;;;;33.03;14.70;;;;;;;1.63;100.00;100410.88;4972772;28;20035;-71
2023/12/12 03:29:43;;;;;;;32.33;14.07;;;;;;;1.70;100.00;100417.31;4955337;28;20029;-70
2023/12/12 03:32:10;;;;;;;31.92;14.95;;;;;;;1.75;100.00;100408.34;4972641;28;20118;-71
2023/12/12 03:34:35;;;;;;;33.42;14.57;;;;;;;1.58;100.00;100409.66;4972858;28;20044;-71
2023/12/12 03:37:01;;;;;;;33.83;14.95;;;;;;;1.43;100.00;100409.44;4972265;28;20031;-71
2023/12/12 03:39:26;;;;;;;31.83;13.80;;;;;;;1.38;100.00;100405.69;4972722;28;20537;-71
2023/12/12 03:41:52;;;;;;;36.63;13.93;;;;;;;1.39;100.00;100407.47;4972508;28;20122;-70
2023/12/12 03:44:18;;;;;;;36.28;14.80;;;;;;;0.96;100.00;100349.28;4938248;28;20125;-71
2023/12/12 03:46:43;;;;;;;37.58;13.90;;;;;;;1.29;100.00;100421.16;4972471;28;20031;-70
2023/12/12 03:49:09;;;;;;;30.48;14.02;;;;;;;1.35;100.00;100419.06;4972511;28;20039;-71
2023/12/12 03:51:34;;;;;;;32.85;14.85;;;;;;;1.13;100.00;100364.13;4972288;28;20030;-70
2023/12/12 03:54:00;;;;;;;32.97;13.90;;;;;;;1.39;100.00;100418.50;4972413;28;20030;-71
2023/12/12 03:56:25;;;;;;;33.85;14.50;;;;;;;0.72;100.00;100333.97;4971888;28;20042;-70
2023/12/12 03:58:51;;;;;;;35.05;16.13;;;;;;;1.07;100.00;100406.88;4972324;28;20093;-70
2023/12/12 04:01:16;;;;;;;32.55;14.68;;;;;;;1.04;100.00;100399.00;4972290;28;20027;-70
2023/12/12 04:03:42;;;;;;;34.50;14.45;;;;;;;1.02;100.00;100392.91;4972100;28;20027;-70
2023/12/12 04:06:07;;;;;;;30.85;13.85;;;;;;;0.78;100.00;100361.50;4937647;28;20039;-70
2023/12/12 04:08:33;;;;;;;33.08;16.05;;;;;;;0.79;100.00;100366.69;4972235;28;20855;-70
2023/12/12 04:10:58;;;;;;;31.67;14.18;;;;;;;0.32;100.00;100293.81;4972133;28;20027;-70
2023/12/12 04:13:24;;;;;;;42.83;14.05;;;;;;;0.61;100.00;100370.41;4972153;28;20023;-70
2023/12/12 04:15:49;;;;;;;42.22;15.00;;;;;;;0.50;100.00;100364.53;4971430;28;20047;-70
2023/12/12 04:18:15;;;;;;;47.35;16.52;;;;;;;0.42;100.00;100363.94;4971715;28;20371;-70
2023/12/12 04:20:40;;;;;;;35.28;16.02;;;;;;;0.35;100.00;100376.97;4971107;28;20034;-70
2023/12/12 04:23:06;;;;;;;44.57;15.73;;;;;;;0.26;100.00;100381.31;4971190;28;20457;-70
2023/12/12 04:25:32;;;;;;;39.10;16.52;;;;;;;0.46;100.00;100398.97;4971783;28;20460;-70
2023/12/12 04:27:58;;;;;;;36.55;14.50;;;;;;;0.25;100.00;100337.28;4971961;28;20105;-71
2023/12/12 04:30:24;;;;;;;37.55;16.52;;;;;;;-0.02;100.00;100300.53;4971480;28;20161;-70
2023/12/12 04:32:49;;;;;;;33.55;16.85;;;;;;;0.47;100.00;100376.97;4969678;28;20151;-70
2023/12/12 04:35:16;;;;;;;38.55;19.95;;;;;;;0.47;100.00;100385.50;4971257;28;20042;-70
2023/12/12 04:37:42;;;;;;;41.78;20.50;;;;;;;0.11;100.00;100313.38;4953973;28;20038;-71
2023/12/12 04:40:08;;;;;;;55.63;27.92;;;;;;;0.63;100.00;100406.97;4965437;28;20026;-71
2023/12/12 04:42:34;;;;;;;47.90;19.92;;;;;;;0.73;100.00;100411.97;4971321;28;20080;-70
2023/12/12 04:44:59;;;;;;;45.22;18.45;;;;;;;0.83;100.00;100413.56;4971388;28;20019;-70
2023/12/12 04:47:25;;;;;;;38.63;16.83;;;;;;;0.91;100.00;100426.81;4971105;28;20030;-70
2023/12/12 04:49:51;;;;;;;48.38;19.55;;;;;;;0.93;100.00;100440.56;4969612;28;20031;-71
2023/12/12 04:52:17;;;;;;;42.47;18.60;;;;;;;0.76;100.00;100424.94;4971245;28;20105;-71
2023/12/12 04:54:42;;;;;;;46.55;19.40;;;;;;;0.89;100.00;100448.72;4971351;28;20062;-71
2023/12/12 04:57:09;;;;;;;46.22;19.25;;;;;;;0.87;100.00;100451.13;4970080;28;20097;-71
2023/12/12 04:59:34;;;;;;;40.78;18.90;;;;;;;0.86;100.00;100459.53;4971209;28;20042;-70
2023/12/12 05:02:00;;;;;;;47.15;18.35;;;;;;;0.76;100.00;100444.34;4970715;28;20023;-70
2023/12/12 05:04:25;;;;;;;50.97;19.85;;;;;;;0.80;100.00;100426.91;4971083;28;20070;-71
2023/12/12 05:06:51;;;;;;;38.92;18.45;;;;;;;0.82;100.00;100438.88;4968720;28;20023;-71
2023/12/12 05:09:17;;;;;;;45.28;18.83;;;;;;;0.81;100.00;100435.44;4968850;28;20070;-71
2023/12/12 05:11:42;;;;;;;41.90;17.17;;;;;;;0.57;100.00;100412.47;4970601;28;20031;-70
2023/12/12 05:14:10;;;;;;;58.92;28.40;;;;;;;0.43;100.00;100413.97;4952878;28;20038;-70
2023/12/12 05:16:36;;;;;;;50.88;22.15;;;;;;;0.34;100.00;100366.66;4945333;28;20186;-70
2023/12/12 05:19:02;;;;;;;43.33;18.95;;;;;;;0.80;100.00;100423.50;4969715;28;20137;-71
2023/12/12 05:21:28;;;;;;;50.30;23.13;;;;;;;0.77;100.00;100435.97;4970703;28;20537;-71
2023/12/12 05:23:54;;;;;;;45.35;20.35;;;;;;;0.76;100.00;100446.88;4971166;28;20549;-70
2023/12/12 05:26:19;;;;;;;45.80;19.95;;;;;;;0.77;100.00;100444.50;4971128;28;20030;-71
2023/12/12 05:28:46;;;;;;;47.70;19.73;;;;;;;0.76;100.00;100441.81;4972078;28;20485;-71
2023/12/12 05:31:12;;;;;;;53.72;20.27;;;;;;;0.80;100.00;100438.75;4974647;28;20034;-71
2023/12/12 05:33:38;;;;;;;49.95;20.48;;;;;;;0.54;100.00;100393.59;4940092;28;20050;-70
2023/12/12 05:36:04;;;;;;;56.33;21.27;;;;;;;1.02;100.00;100455.59;4973900;28;20050;-71
2023/12/12 05:38:29;;;;;;;49.20;20.13;;;;;;;1.13;100.00;100464.91;4974110;28;20489;-70
2023/12/12 05:40:56;;;;;;;50.47;19.48;;;;;;;1.25;100.00;100459.88;4973229;28;20031;-70
2023/12/12 05:43:21;;;;;;;55.67;20.25;;;;;;;1.20;100.00;100444.25;4973849;28;20027;-70
2023/12/12 07:06:56;;;;;;;94.28;31.73;;;;;;;1.70;100.00;100530.16;4958416;28;20054;-70
2023/12/12 07:09:24;;;;;;;72.57;22.80;;;;;;;1.61;100.00;100526.94;4951804;28;20078;-69
2023/12/12 07:11:50;;;;;;;70.72;24.58;;;;;;;1.58;100.00;100527.63;4954617;28;20085;-69
2023/12/12 07:14:17;;;;;;;126.32;47.35;;;;;;;1.27;100.00;100453.22;4970323;28;20027;-70
2023/12/12 07:17:08;;;;;;;97.45;39.45;;;;;;;1.40;100.00;100448.25;4923786;29;20031;-72
2023/12/12 07:19:37;;;;;;;164.15;61.85;;;;;;;1.58;100.00;100458.00;4918776;29;20046;-70
2023/12/12 07:22:14;;;;;;;138.07;54.60;;;;;;;1.55;100.00;100443.41;4949332;29;20134;-70
2023/12/12 07:24:41;;;;;;;105.35;36.85;;;;;;;1.93;100.00;100508.94;4931476;29;20139;-71
2023/12/12 07:27:09;;;;;;;105.18;30.65;;;;;;;1.42;100.00;100459.44;4900921;29;20035;-70
2023/12/12 07:29:34;;;;;;;103.85;31.23;;;;;;;1.38;100.00;100454.00;4909863;29;20150;-70
2023/12/12 07:32:03;;;;;;;88.28;31.23;;;;;;;1.61;100.00;100492.19;4910163;29;20120;-70
2023/12/12 07:34:28;;;;;;;93.97;34.33;;;;;;;1.71;100.00;100510.69;4865577;29;20044;-71
2023/12/12 07:36:54;;;;;;;92.20;33.30;;;;;;;1.78;100.00;100507.81;4841379;29;20049;-70
2023/12/12 07:39:23;;;;;;;91.82;37.05;;;;;;;1.84;100.00;100507.38;4870955;29;20060;-70
2023/12/12 07:41:51;;;;;;;87.35;34.22;;;;;;;1.87;100.00;100505.03;4856498;29;20539;-70
2023/12/12 07:44:37;;;;;;;115.93;45.22;;;;;;;1.86;100.00;100513.47;4856610;29;20051;-70
2023/12/12 07:47:04;;;;;;;76.32;30.40;;;;;;;2.02;100.00;100520.53;4841203;29;20139;-70
2023/12/12 07:49:30;;;;;;;79.13;26.88;;;;;;;2.20;100.00;100523.53;4837765;29;20058;-70
2023/12/12 07:52:16;;;;;;;74.95;25.48;;;;;;;2.35;100.00;100514.41;4783607;29;20444;-70
2023/12/12 07:54:48;;;;;;;64.97;27.88;;;;;;;2.42;100.00;100503.88;4768021;29;20051;-70
2023/12/12 07:57:19;;;;;;;71.07;24.58;;;;;;;2.42;100.00;100513.19;4771990;29;20587;-70
2023/12/12 07:59:45;;;;;;;78.32;26.05;;;;;;;2.54;100.00;100508.06;4783144;29;20042;-70
2023/12/12 08:02:36;;;;;;;70.22;26.55;;;;;;;2.13;100.00;100420.34;4801376;29;20054;-70
2023/12/12 08:05:06;;;;;;;76.07;27.48;;;;;;;2.71;100.00;100497.38;4785586;29;20111;-69
2023/12/12 08:07:32;;;;;;;79.22;28.73;;;;;;;2.59;100.00;100477.03;4804239;29;20542;-72
2023/12/12 08:10:01;;;;;;;69.35;27.38;;;;;;;2.77;100.00;100508.75;4786190;29;20058;-71
2023/12/12 08:12:47;;;;;;;64.05;24.42;;;;;;;2.91;100.00;100485.97;4801248;29;20556;-70
2023/12/12 08:15:23;;;;;;;74.47;27.63;;;;;;;2.71;100.00;100438.72;4765441;30;20134;-70
2023/12/12 08:17:51;;;;;;;68.95;25.65;;;;;;;3.14;100.00;100491.75;4765071;30;20219;-70
2023/12/12 08:20:18;;;;;;;54.80;24.02;;;;;;;3.20;100.00;100488.72;4729892;30;20056;-70
2023/12/12 08:23:07;;;;;;;56.58;24.88;;;;;;;3.27;100.00;100496.00;4705156;30;20056;-69
2023/12/12 08:25:57;;;;;;;52.53;22.55;;;;;;;3.31;100.00;100477.56;4743204;30;20583;-70
2023/12/12 08:28:47;;;;;;;56.13;24.60;;;;;;;3.40;100.00;100498.59;4733120;30;20048;-70
2023/12/12 08:31:14;;;;;;;63.70;27.08;;;;;;;3.50;100.00;100494.09;4727025;30;20052;-70
2023/12/12 08:33:48;;;;;;;62.30;24.90;;;;;;;3.56;100.00;100490.28;4712328;30;20045;-70
2023/12/12 08:36:35;;;;;;;62.67;25.90;;;;;;;3.65;100.00;100492.56;4712535;30;20132;-69
2023/12/12 08:39:02;;;;;;;77.25;29.33;;;;;;;3.56;100.00;100485.19;4726849;30;20044;-70
2023/12/12 08:41:49;;;;;;;76.15;29.20;;;;;;;3.68;100.00;100504.63;4747508;30;20048;-71
2023/12/12 08:44:19;;;;;;;66.25;27.88;;;;;;;3.61;100.00;100503.31;4747539;30;20106;-70
2023/12/12 08:46:46;;;;;;;72.63;29.63;;;;;;;3.68;100.00;100500.41;4773092;29;20089;-70
2023/12/12 08:49:37;;;;;;;72.55;28.80;;;;;;;3.22;100.00;100429.34;4805874;29;20505;-70
2023/12/12 08:52:08;;;;;;;72.82;29.05;;;;;;;3.69;100.00;100504.72;4831305;29;20435;-70
2023/12/12 08:54:38;;;;;;;65.32;27.67;;;;;;;3.74;100.00;100489.72;4819642;29;20421;-70
2023/12/12 08:57:05;;;;;;;66.65;27.63;;;;;;;3.82;100.00;100487.66;4837097;29;20551;-70
2023/12/12 08:59:39;;;;;;;66.28;27.80;;;;;;;3.95;100.00;100484.19;4837266;29;20077;-70
2023/12/12 09:02:10;;;;;;;72.20;29.70;;;;;;;3.61;100.00;100401.22;4854936;29;20134;-70
2023/12/12 09:04:41;;;;;;;68.30;28.40;;;;;;;4.26;100.00;100471.69;4862340;29;20048;-70
2023/12/12 09:07:07;;;;;;;72.22;31.02;;;;;;;4.45;100.00;100475.38;4846938;29;20163;-70
2023/12/12 09:09:34;;;;;;;77.70;32.50;;;;;;;4.58;100.00;100471.91;4847408;29;20045;-70
2023/12/12 09:12:00;;;;;;;82.22;33.40;;;;;;;4.67;100.00;100463.13;4859109;29;20049;-70
2023/12/12 09:14:39;;;;;;;85.47;34.78;;;;;;;4.68;100.00;100462.31;4859350;29;20048;-70
2023/12/12 09:17:33;;;;;;;79.35;32.55;;;;;;;4.74;100.00;100451.59;4915115;29;20048;-70
2023/12/12 09:20:04;;;;;;;74.30;31.17;;;;;;;4.84;100.00;100453.00;4880544;29;20041;-70
2023/12/12 09:22:37;;;;;;;76.07;32.67;;;;;;;4.96;100.00;100458.88;4896161;29;20113;-70
2023/12/12 09:25:02;;;;;;;74.88;31.63;;;;;;;5.03;100.00;100447.31;4896199;29;20136;-70
2023/12/12 09:27:28;;;;;;;71.93;31.52;;;;;;;5.28;100.00;100449.63;4899320;29;20048;-70
2023/12/12 09:30:25;;;;;;;73.70;32.45;;;;;;;5.12;100.00;100442.75;4915368;29;20126;-70
2023/12/12 09:33:12;;;;;;;71.68;31.08;;;;;;;5.26;100.00;100443.53;4915038;29;20102;-70
2023/12/12 09:36:00;;;;;;;74.20;31.05;;;;;;;5.26;100.00;100446.09;4868992;29;20044;-70
2023/12/12 09:38:47;;;;;;;62.47;30.38;;;;;;;5.42;100.00;100427.38;4861566;29;20045;-70
2023/12/12 09:41:48;;;;;;;64.90;28.55;;;;;;;5.64;100.00;100421.78;4877409;29;20061;-70
2023/12/12 09:47:18;;;;;;;66.85;28.73;;;;;;;5.55;100.00;100395.66;4821932;29;20042;-70
2023/12/12 09:50:07;;;;;;;69.10;29.95;;;;;;;5.78;100.00;100404.63;4833056;29;20102;-70
2023/12/12 09:53:35;;;;;;;60.97;29.45;;;;;;;6.04;100.00;100407.75;4810858;29;20042;-70
2023/12/12 09:56:10;;;;;;;50.25;24.88;;;;;;;5.53;100.00;100286.25;4785695;29;20122;-70
2023/12/12 10:02:06;;;;;;;57.95;27.65;;;;;;;6.38;100.00;100404.44;4767777;30;20042;-70
2023/12/12 10:05:36;;;;;;;;;;;;;;;;;;;;;
2023/12/12 10:08:49;;;;;;;63.22;29.13;;;;;;;6.62;100.00;100416.78;4679981;30;20068;-70
2023/12/12 10:11:28;;;;;;;65.22;29.45;;;;;;;6.68;100.00;100417.09;4697212;30;20608;-70
2023/12/12 10:15:11;;;;;;;62.05;28.77;;;;;;;6.78;100.00;100410.75;4696620;30;20100;-71
2023/12/12 10:18:24;;;;;;;52.80;25.85;;;;;;;6.96;100.00;100410.81;4645853;30;20439;-70
2023/12/12 10:21:09;;;;;;;53.50;24.70;;;;;;;7.06;100.00;100413.03;4614834;31;20051;-70
2023/12/12 10:23:56;;;;;;;51.47;25.80;;;;;;;7.12;100.00;100407.31;4628755;30;20059;-70
2023/12/12 10:27:13;;;;;;;53.33;23.75;;;;;;;7.23;100.00;100411.31;4611456;31;20061;-70
2023/12/12 10:30:10;;;;;;;51.83;24.80;;;;;;;7.08;100.00;100408.00;4609128;31;20040;-70
2023/12/12 10:33:14;;;;;;;48.20;23.02;;;;;;;7.15;100.00;100392.06;4615207;31;20473;-71
2023/12/12 10:36:34;;;;;;;47.45;24.23;;;;;;;7.24;100.00;100400.22;4614294;31;20512;-70
2023/12/12 10:39:13;;;;;;;46.03;23.23;;;;;;;7.25;100.00;100396.88;4613440;30;20039;-70
2023/12/12 10:42:09;;;;;;;50.20;24.25;;;;;;;7.38;100.00;100394.91;4645475;30;20454;-70
2023/12/12 10:45:13;;;;;;;49.35;24.23;;;;;;;7.51;100.00;100397.22;4645915;30;20047;-70
2023/12/12 10:48:34;;;;;;;53.35;25.15;;;;;;;7.50;100.00;100392.03;4630014;30;20131;-70
2023/12/12 10:51:11;;;;;;;51.60;25.23;;;;;;;7.62;100.00;100387.47;4623536;30;20054;-70
2023/12/12 10:53:54;;;;;;;59.33;28.25;;;;;;;7.57;100.00;100360.69;4627754;30;20082;-71
2023/12/12 10:57:04;;;;;;;65.20;30.17;;;;;;;7.86;100.00;100385.19;4627669;30;20117;-70
2023/12/12 10:59:46;;;;;;;89.63;44.67;;;;;;;7.83;100.00;100368.75;4638580;30;20440;-70
2023/12/12 11:02:19;;;;;;;70.68;37.60;;;;;;;8.01;100.00;100391.81;4740950;30;20078;-71
2023/12/12 11:04:59;;;;;;;60.40;29.17;;;;;;;7.81;100.00;100349.78;4741726;30;20157;-70
2023/12/12 11:07:29;;;;;;;59.70;28.35;;;;;;;8.19;100.00;100389.22;4727037;30;20069;-70
2023/12/12 11:10:00;;;;;;;62.95;28.40;;;;;;;8.01;100.00;100343.88;4715130;30;20127;-70
2023/12/12 11:13:01;;;;;;;61.58;28.80;;;;;;;8.35;100.00;100389.09;4777286;29;20063;-70
2023/12/12 11:16:13;;;;;;;61.83;29.77;;;;;;;8.49;100.00;100388.88;4820207;29;20117;-70
2023/12/12 11:19:03;;;;;;;57.60;28.73;;;;;;;8.40;100.00;100373.88;4852864;29;20050;-70
2023/12/12 11:22:19;;;;;;;;;;;;;;;;;;;;;
2023/12/12 11:25:20;;;;;;;66.45;28.88;;;;;;;8.51;100.00;100389.78;4801338;29;20396;-70
2023/12/12 11:27:50;;;;;;;56.00;26.67;;;;;;;8.48;100.00;100382.81;4786755;29;20050;-70
2023/12/12 11:30:55;;;;;;;53.03;26.98;;;;;;;8.53;100.00;100395.91;4751031;30;20063;-70
2023/12/12 11:34:13;;;;;;;55.75;25.88;;;;;;;8.57;100.00;100388.41;4712944;30;20066;-70
2023/12/12 11:37:03;;;;;;;57.10;27.15;;;;;;;8.67;100.00;100378.47;4713165;30;20079;-70
2023/12/12 11:39:51;;;;;;;50.58;24.90;;;;;;;8.69;100.00;100377.72;4705105;30;20112;-70
2023/12/12 11:42:45;;;;;;;51.83;24.90;;;;;;;8.70;100.00;100368.34;4709397;30;20549;-71
2023/12/12 11:45:50;;;;;;;46.55;23.98;;;;;;;8.74;100.00;100355.63;4690969;30;20064;-71
2023/12/12 11:48:29;;;;;;;47.47;24.35;;;;;;;8.86;100.00;100364.69;4661476;30;20136;-71
2023/12/12 11:51:54;;;;;;;45.75;23.73;;;;;;;8.86;100.00;100375.88;4650004;30;20077;-70
2023/12/12 11:54:26;;;;;;;47.85;24.30;;;;;;;8.88;100.00;100370.78;4692727;30;20147;-70
2023/12/12 11:57:21;;;;;;;47.72;23.30;;;;;;;8.90;100.00;100372.63;4678027;30;20585;-70
2023/12/12 11:59:55;;;;;;;49.10;24.23;;;;;;;8.89;100.00;100370.84;4664983;30;20046;-71
2023/12/12 12:02:45;;;;;;;59.10;31.80;;;;;;;8.91;100.00;100373.53;4734067;30;20055;-71
2023/12/12 12:05:27;;;;;;;49.53;25.67;;;;;;;8.95;100.00;100365.09;4724041;30;20515;-73
2023/12/12 12:08:26;;;;;;;;;;;;;;;;;;;;;
2023/12/12 12:14:20;;;;;;;44.67;23.67;;;;;;;9.07;100.00;100362.13;4735454;30;20061;-72
2023/12/12 12:17:25;;;;;;;49.80;22.98;;;;;;;9.08;100.00;100371.63;4692392;30;20430;-71
2023/12/12 12:20:47;;;;;;;41.50;22.27;;;;;;;9.12;100.00;100365.81;4712610;30;20116;-72
2023/12/12 12:24:00;;;;;;;25.70;13.10;;;;;;;8.95;100.00;100326.47;4677928;30;20053;-71
2023/12/12 12:26:38;;;;;;;26.05;13.75;;;;;;;9.30;100.00;100369.94;4659044;30;20058;-72
2023/12/12 12:29:27;;;;;;;22.97;13.53;;;;;;;9.34;100.00;100335.75;4632643;30;20054;-71
2023/12/12 12:32:18;;;;;;;24.27;14.20;;;;;;;9.48;100.00;100347.50;4640033;30;20114;-71
2023/12/12 12:34:49;;;;;;;24.55;13.90;;;;;;;9.42;100.00;100339.53;4606700;30;20104;-71
2023/12/12 12:37:47;;;;;;;27.00;13.70;;;;;;;9.46;100.00;100337.91;4641584;30;20047;-71
2023/12/12 12:44:23;;;;;;;25.83;14.93;;;;;;;9.45;100.00;100334.47;4626125;30;20615;-72
2023/12/12 12:47:23;;;;;;;34.97;18.42;;;;;;;9.51;100.00;100332.13;4624894;30;20044;-72
2023/12/12 12:50:07;;;;;;;38.83;21.10;;;;;;;9.52;100.00;100328.75;4626683;30;20092;-72
2023/12/12 12:53:01;;;;;;;51.65;28.13;;;;;;;9.53;100.00;100322.78;4631174;30;20094;-72
2023/12/12 12:55:59;;;;;;;34.95;18.83;;;;;;;9.55;100.00;100323.69;4642272;30;20160;-71
2023/12/12 12:58:50;;;;;;;31.25;18.13;;;;;;;9.17;100.00;100260.38;4654552;30;20090;-72
2023/12/12 13:01:42;;;;;;;;;;;;;;;;;;;;;
2023/12/12 13:04:49;;;;;;;34.25;18.58;;;;;;;9.64;100.00;100340.34;4649957;30;20074;-73
2023/12/12 13:07:32;;;;;;;29.65;17.95;;;;;;;9.62;100.00;100340.28;4649782;30;20046;-71
2023/12/12 13:10:26;;;;;;;33.25;18.23;;;;;;;9.64;100.00;100338.63;4683026;30;20050;-70
2023/12/12 13:13:32;;;;;;;29.17;16.83;;;;;;;9.63;100.00;100349.78;4670044;30;20097;-72
2023/12/12 13:16:57;;;;;;;27.30;15.90;;;;;;;9.63;100.00;100362.69;4641032;30;20150;-73
2023/12/12 13:19:47;;;;;;;30.35;16.95;;;;;;;9.65;100.00;100362.72;4633841;30;20618;-73
2023/12/12 13:22:34;;;;;;;26.08;15.18;;;;;;;9.72;100.00;100364.72;4635536;30;20059;-71
2023/12/12 13:25:29;;;;;;;24.73;14.45;;;;;;;9.73;100.00;100363.88;4643043;30;20061;-72